createdAt,value
2019-05-22T00:03:00.489Z,85.32
2019-05-22T00:06:06.547Z,86.00
2019-05-22T00:09:21.212Z,85.75
2019-05-22T00:12:27.582Z,86.10
2019-05-22T00:15:33.687Z,85.77
2019-05-22T00:18:40.056Z,85.29
2019-05-22T00:21:46.733Z,85.24
2019-05-22T00:24:52.950Z,85.74
2019-05-22T00:28:00.409Z,85.65
2019-05-22T00:31:06.556Z,85.64
2019-05-22T00:34:11.647Z,85.27
2019-05-22T00:37:17.610Z,85.18
2019-05-22T00:40:22.497Z,85.79
2019-05-22T00:43:34.370Z,85.12
2019-05-22T00:46:40.320Z,85.41
2019-05-22T00:49:46.775Z,85.42
2019-05-22T00:53:04.367Z,85.48
2019-05-22T00:56:12.593Z,85.39
2019-05-22T00:59:29.315Z,85.19
2019-05-22T01:02:36.602Z,85.62
2019-05-22T01:05:42.722Z,85.52
2019-05-22T01:08:49.256Z,85.06
2019-05-22T01:11:55.450Z,84.61
2019-05-22T01:15:04.997Z,84.85
2019-05-22T01:18:11.694Z,85.49
2019-05-22T01:21:19.683Z,85.63
2019-05-22T01:24:25.298Z,85.78
2019-05-22T01:27:32.660Z,85.22
2019-05-22T01:30:40.249Z,85.06
2019-05-22T01:33:52.425Z,86.36
2019-05-22T01:36:58.005Z,86.29
2019-05-22T01:40:12.478Z,86.16
2019-05-22T01:43:27.679Z,86.30
2019-05-22T01:46:34.435Z,85.66
2019-05-22T01:49:44.698Z,85.36
2019-05-22T01:52:52.011Z,86.18
2019-05-22T01:55:58.599Z,85.90
2019-05-22T01:59:04.960Z,85.97
2019-05-22T02:02:09.767Z,85.30
2019-05-22T02:05:16.567Z,85.32
2019-05-22T02:08:24.231Z,85.43
2019-05-22T02:11:30.215Z,85.79
2019-05-22T02:14:35.101Z,85.82
2019-05-22T02:17:39.816Z,85.68
2019-05-22T02:20:45.241Z,85.40
2019-05-22T02:23:49.860Z,84.61
2019-05-22T02:26:55.010Z,85.18
2019-05-22T02:30:00.050Z,85.68
2019-05-22T02:33:07.168Z,86.38
2019-05-22T02:36:12.105Z,86.86
2019-05-22T02:39:28.987Z,86.74
2019-05-22T02:42:34.471Z,86.67
2019-05-22T02:45:39.678Z,86.72
2019-05-22T02:48:44.715Z,85.43
2019-05-22T02:51:50.881Z,86.27
2019-05-22T02:54:55.605Z,85.67
2019-05-22T02:58:00.444Z,85.66
2019-05-22T03:01:06.274Z,85.66
2019-05-22T03:04:11.556Z,85.22
2019-05-22T03:07:16.173Z,85.18
2019-05-22T03:10:23.870Z,84.96
2019-05-22T03:13:57.789Z,85.34
2019-05-22T03:17:07.344Z,85.82
2019-05-22T03:20:17.317Z,85.85
2019-05-22T03:23:36.864Z,85.46
2019-05-22T03:26:51.936Z,85.65
2019-05-22T03:29:58.302Z,85.71
2019-05-22T03:33:06.008Z,85.69
2019-05-22T03:36:16.753Z,85.35
2019-05-22T03:39:22.398Z,85.79
2019-05-22T03:42:27.319Z,86.40
2019-05-22T03:45:33.192Z,86.31
2019-05-22T03:48:38.894Z,86.75
2019-05-22T03:51:46.165Z,86.74
2019-05-22T03:54:51.093Z,85.84
2019-05-22T03:57:56.409Z,86.32
2019-05-22T04:01:02.811Z,85.40
2019-05-22T04:04:10.014Z,85.06
2019-05-22T04:07:21.435Z,84.78
2019-05-22T04:10:31.557Z,84.51
2019-05-22T04:13:36.846Z,84.43
2019-05-22T04:16:41.833Z,84.33
2019-05-22T04:19:51.062Z,84.30
2019-05-22T04:22:58.946Z,84.99
2019-05-22T04:26:05.138Z,84.54
2019-05-22T04:29:11.233Z,84.66
2019-05-22T04:32:17.559Z,84.76
2019-05-22T04:35:24.446Z,85.19
2019-05-22T04:38:30.026Z,85.12
2019-05-22T04:41:34.658Z,85.31
2019-05-22T04:44:44.186Z,85.59
2019-05-22T04:48:01.726Z,85.49
2019-05-22T04:51:26.724Z,85.28
2019-05-22T04:54:31.136Z,85.34
2019-05-22T04:57:36.699Z,86.14
2019-05-22T05:00:41.477Z,85.94
2019-05-22T05:03:46.298Z,86.01
2019-05-22T05:06:51.453Z,85.37
2019-05-22T05:09:55.904Z,85.31
2019-05-22T05:13:00.365Z,84.26
2019-05-22T05:16:05.404Z,83.58
2019-05-22T05:19:10.329Z,83.10
2019-05-22T05:22:19.484Z,83.32
2019-05-22T05:25:24.010Z,83.21
2019-05-22T05:28:28.729Z,83.64
2019-05-22T05:31:33.342Z,83.31
2019-05-22T05:34:48.518Z,83.17
2019-05-22T05:37:53.231Z,83.50
2019-05-22T05:40:57.872Z,83.17
2019-05-22T05:44:02.399Z,83.45
2019-05-22T05:47:08.276Z,83.08
2019-05-22T05:50:15.432Z,82.39
2019-05-22T05:53:22.174Z,82.02
2019-05-22T05:56:30.355Z,82.49
2019-05-22T05:59:35.180Z,82.41
2019-05-22T06:02:54.032Z,81.92
2019-05-22T06:05:46.253Z,81.82
2019-05-22T06:08:51.208Z,80.76
2019-05-22T06:11:59.492Z,80.08
2019-05-22T06:15:05.045Z,80.44
2019-05-22T06:18:32.268Z,80.37
2019-05-22T06:21:39.899Z,81.01
2019-05-22T06:24:52.546Z,80.86
2019-05-22T06:27:58.996Z,81.11
2019-05-22T06:31:05.549Z,81.23
2019-05-22T06:34:11.034Z,81.46
2019-05-22T06:37:32.121Z,80.05
2019-05-22T06:40:36.866Z,81.05
2019-05-22T06:43:46.019Z,80.58
2019-05-22T06:46:50.648Z,81.32
2019-05-22T06:49:56.001Z,80.86
2019-05-22T06:53:09.929Z,80.20
2019-05-22T06:56:08.505Z,80.06
2019-05-22T06:59:13.398Z,79.46
2019-05-22T07:02:19.597Z,79.38
2019-05-22T07:05:24.682Z,79.39
2019-05-22T07:08:29.116Z,79.77
2019-05-22T07:11:34.313Z,78.73
2019-05-22T07:14:44.681Z,80.33
2019-05-22T07:17:52.185Z,79.55
2019-05-22T07:20:57.014Z,78.57
2019-05-22T07:24:03.221Z,77.51
2019-05-22T07:27:26.867Z,78.57
2019-05-22T07:30:32.179Z,79.01
2019-05-22T07:33:37.129Z,77.17
2019-05-22T07:36:43.190Z,76.67
2019-05-22T07:39:48.206Z,76.42
2019-05-22T07:42:53.700Z,75.22
2019-05-22T07:45:59.636Z,75.82
2019-05-22T07:49:04.286Z,75.53
2019-05-22T07:52:09.807Z,75.75
2019-05-22T07:55:16.229Z,75.18
2019-05-22T07:58:21.704Z,76.31
2019-05-22T08:01:26.332Z,76.91
2019-05-22T08:04:33.048Z,75.64
2019-05-22T08:07:39.422Z,74.73
2019-05-22T08:10:45.003Z,71.88
2019-05-22T08:13:49.783Z,72.56
2019-05-22T08:16:55.074Z,72.15
2019-05-22T08:20:00.030Z,72.47
2019-05-22T08:23:04.792Z,70.15
2019-05-22T08:26:12.189Z,72.84
2019-05-22T08:29:18.280Z,73.06
2019-05-22T08:32:24.481Z,72.57
2019-05-22T08:35:30.639Z,71.95
2019-05-22T08:38:36.025Z,73.05
2019-05-22T08:41:43.771Z,72.14
2019-05-22T08:44:48.937Z,70.94
2019-05-22T08:47:53.927Z,70.25
2019-05-22T08:50:59.247Z,68.83
2019-05-22T08:54:06.034Z,68.57
2019-05-22T08:57:11.998Z,68.62
2019-05-22T09:00:20.157Z,69.62
2019-05-22T09:03:25.200Z,65.92
2019-05-22T09:06:29.704Z,67.15
2019-05-22T09:09:34.906Z,67.00
2019-05-22T09:12:39.698Z,68.05
2019-05-22T09:15:45.186Z,67.29
2019-05-22T09:18:50.328Z,69.55
2019-05-22T09:21:55.221Z,69.28
2019-05-22T09:25:00.561Z,67.43
2019-05-22T09:28:05.645Z,67.45
2019-05-22T09:31:10.090Z,69.41
2019-05-22T09:34:15.330Z,70.25
2019-05-22T09:37:20.046Z,68.10
2019-05-22T09:40:25.201Z,68.19
2019-05-22T09:43:29.820Z,69.25
2019-05-22T09:46:34.541Z,69.37
2019-05-22T09:49:39.785Z,68.71
2019-05-22T09:52:56.789Z,68.33
2019-05-22T09:55:54.029Z,68.15
2019-05-22T09:58:58.923Z,66.96
2019-05-22T10:02:06.373Z,66.17
2019-05-22T10:05:12.324Z,65.61
2019-05-22T10:08:16.776Z,67.03
2019-05-22T10:11:21.493Z,68.30
2019-05-22T10:14:25.987Z,66.24
2019-05-22T10:17:31.076Z,66.53
2019-05-22T10:20:35.799Z,67.74
2019-05-22T10:23:41.237Z,66.37
2019-05-22T10:26:46.347Z,68.54
2019-05-22T10:29:52.240Z,67.10
2019-05-22T10:32:56.764Z,68.78
2019-05-22T10:36:01.699Z,68.91
2019-05-22T10:39:08.499Z,67.24
2019-05-22T10:42:13.179Z,67.59
2019-05-22T10:45:17.966Z,66.71
2019-05-22T10:48:22.422Z,68.52
2019-05-22T10:51:27.404Z,66.12
2019-05-22T10:54:32.132Z,65.71
2019-05-22T10:57:40.656Z,64.15
2019-05-22T11:00:43.654Z,65.72
2019-05-22T11:03:48.289Z,66.59
2019-05-22T11:06:54.349Z,67.09
2019-05-22T11:09:59.237Z,66.36
2019-05-22T11:13:04.029Z,63.51
2019-05-22T11:16:10.156Z,65.84
2019-05-22T11:19:15.701Z,66.10
2019-05-22T11:22:20.515Z,63.35
2019-05-22T11:25:25.686Z,65.08
2019-05-22T11:28:31.407Z,63.69
2019-05-22T11:31:36.262Z,64.50
2019-05-22T11:34:40.701Z,63.92
2019-05-22T11:37:45.212Z,62.99
2019-05-22T11:40:50.261Z,61.87
2019-05-22T11:43:55.347Z,57.95
2019-05-22T11:47:00.328Z,60.68
2019-05-22T11:50:07.311Z,62.12
2019-05-22T11:53:13.793Z,60.04
2019-05-22T11:56:18.408Z,57.38
2019-05-22T11:59:24.205Z,54.55
2019-05-22T12:02:29.022Z,55.66
2019-05-22T12:05:34.005Z,57.43
2019-05-22T12:08:38.767Z,55.72
2019-05-22T12:11:43.715Z,53.23
2019-05-22T12:14:48.167Z,54.61
2019-05-22T12:17:53.818Z,54.43
2019-05-22T12:20:58.624Z,55.51
2019-05-22T12:24:03.350Z,52.86
2019-05-22T12:27:08.426Z,55.19
2019-05-22T12:30:14.211Z,57.36
2019-05-22T12:33:18.919Z,57.17
2019-05-22T12:36:23.364Z,56.74
2019-05-22T12:39:29.241Z,51.14
2019-05-22T12:42:34.391Z,52.15
2019-05-22T12:45:38.972Z,52.36
2019-05-22T12:48:43.950Z,56.26
2019-05-22T12:51:49.355Z,57.30
2019-05-22T12:54:54.789Z,55.72
2019-05-22T12:58:00.270Z,57.25
2019-05-22T13:01:06.115Z,54.91
2019-05-22T13:04:12.741Z,56.17
2019-05-22T13:07:17.190Z,53.60
2019-05-22T13:10:23.573Z,55.73
2019-05-22T13:13:28.357Z,55.61
2019-05-22T13:16:33.709Z,55.67
2019-05-22T13:19:39.187Z,54.17
2019-05-22T13:22:47.734Z,52.42
2019-05-22T13:25:53.198Z,53.97
2019-05-22T13:28:58.364Z,56.01
2019-05-22T13:32:04.322Z,55.32
2019-05-22T13:35:10.269Z,53.10
2019-05-22T13:38:15.738Z,51.49
2019-05-22T13:41:20.870Z,52.16
2019-05-22T13:44:25.705Z,48.67
2019-05-22T13:47:30.586Z,50.87
2019-05-22T13:50:35.271Z,50.93
2019-05-22T13:53:41.539Z,51.98
2019-05-22T13:56:46.516Z,50.68
2019-05-22T13:59:51.221Z,52.73
2019-05-22T14:02:55.903Z,48.50
2019-05-22T14:06:01.562Z,50.18
2019-05-22T14:09:11.312Z,49.45
2019-05-22T14:12:16.488Z,50.13
2019-05-22T14:15:21.103Z,49.97
2019-05-22T14:18:26.239Z,49.51
2019-05-22T14:21:30.974Z,50.52
2019-05-22T14:24:36.091Z,48.75
2019-05-22T14:27:41.848Z,51.00
2019-05-22T14:30:46.705Z,49.19
2019-05-22T14:33:51.818Z,50.12
2019-05-22T14:36:57.574Z,49.38
2019-05-22T14:40:02.753Z,45.47
2019-05-22T14:43:08.326Z,48.71
2019-05-22T14:46:13.325Z,50.43
2019-05-22T14:49:20.715Z,50.22
2019-05-22T14:52:24.585Z,46.80
2019-05-22T14:55:30.012Z,48.49
2019-05-22T14:58:35.803Z,47.21
2019-05-22T15:01:40.258Z,48.47
2019-05-22T15:04:44.696Z,48.32
2019-05-22T15:07:49.727Z,47.64
2019-05-22T15:10:55.166Z,48.37
2019-05-22T15:13:59.622Z,47.11
2019-05-22T15:17:04.147Z,48.89
2019-05-22T15:20:11.195Z,46.56
2019-05-22T15:23:15.650Z,47.26
2019-05-22T15:26:20.337Z,45.19
2019-05-22T15:29:25.918Z,46.86
2019-05-22T15:32:30.642Z,44.98
2019-05-22T15:35:35.790Z,45.48
2019-05-22T15:38:43.187Z,45.36
2019-05-22T15:41:48.121Z,46.10
2019-05-22T15:44:52.946Z,45.85
2019-05-22T15:48:02.876Z,47.62
2019-05-22T15:51:08.253Z,50.84
2019-05-22T15:54:14.199Z,48.99
2019-05-22T15:57:21.392Z,48.85
2019-05-22T16:00:29.517Z,47.98
2019-05-22T16:03:35.304Z,49.38
2019-05-22T16:06:40.302Z,51.35
2019-05-22T16:09:46.554Z,48.94
2019-05-22T16:12:51.155Z,48.37
2019-05-22T16:15:57.883Z,48.80
2019-05-22T16:19:05.673Z,49.74
2019-05-22T16:22:11.899Z,46.61
2019-05-22T16:25:17.370Z,47.97
2019-05-22T16:28:23.725Z,49.72
2019-05-22T16:31:28.402Z,50.15
2019-05-22T16:34:33.221Z,50.53
2019-05-22T16:37:38.579Z,48.81
2019-05-22T16:40:44.733Z,49.54
2019-05-22T16:43:51.231Z,48.88
2019-05-22T16:46:57.193Z,49.57
2019-05-22T16:50:02.506Z,51.58
2019-05-22T16:53:10.826Z,50.16
2019-05-22T16:56:16.845Z,51.04
2019-05-22T16:59:22.230Z,52.05
2019-05-22T17:02:27.366Z,50.41
2019-05-22T17:05:32.408Z,50.48
2019-05-22T17:08:38.409Z,51.56
2019-05-22T17:11:43.592Z,51.11
2019-05-22T17:14:51.389Z,52.50
2019-05-22T17:17:56.539Z,53.72
2019-05-22T17:21:01.687Z,53.03
2019-05-22T17:24:09.135Z,53.57
2019-05-22T17:27:16.644Z,52.02
2019-05-22T17:30:24.149Z,50.59
2019-05-22T17:33:29.191Z,52.66
2019-05-22T17:36:34.291Z,52.54
2019-05-22T17:39:41.685Z,54.87
2019-05-22T17:42:48.399Z,56.55
2019-05-22T17:45:54.118Z,54.98
2019-05-22T17:49:00.501Z,55.90
2019-05-22T17:52:05.920Z,56.16
2019-05-22T17:55:12.691Z,56.21
2019-05-22T17:58:18.257Z,55.12
2019-05-22T18:01:24.256Z,56.04
2019-05-22T18:04:29.107Z,58.50
2019-05-22T18:07:34.176Z,59.23
2019-05-22T18:10:41.730Z,61.29
2019-05-22T18:13:56.312Z,61.07
2019-05-22T18:17:01.034Z,62.01
2019-05-22T18:20:08.561Z,59.24
2019-05-22T18:23:13.258Z,64.78
2019-05-22T18:26:18.160Z,64.99
2019-05-22T18:29:22.671Z,65.88
2019-05-22T18:32:27.452Z,67.08
2019-05-22T18:35:32.902Z,66.80
2019-05-22T18:38:37.642Z,67.53
2019-05-22T18:41:42.672Z,68.29
2019-05-22T18:44:47.111Z,68.58
2019-05-22T18:47:52.348Z,69.46
2019-05-22T18:50:56.962Z,69.90
2019-05-22T18:54:01.405Z,70.04
2019-05-22T18:57:06.218Z,70.09
2019-05-22T19:00:12.100Z,70.15
2019-05-22T19:03:16.982Z,70.01
2019-05-22T19:06:30.460Z,70.16
2019-05-22T19:09:28.630Z,70.65
2019-05-22T19:12:33.867Z,70.88
2019-05-22T19:15:39.322Z,70.84
2019-05-22T19:18:44.146Z,71.21
2019-05-22T19:21:48.594Z,71.15
2019-05-22T19:24:53.304Z,71.28
2019-05-22T19:27:58.062Z,71.21
2019-05-22T19:31:03.181Z,72.12
2019-05-22T19:34:07.699Z,72.17
2019-05-22T19:37:12.394Z,72.46
2019-05-22T19:40:18.050Z,72.90
2019-05-22T19:43:22.576Z,72.72
2019-05-22T19:46:27.465Z,73.10
2019-05-22T19:49:32.485Z,73.14
2019-05-22T19:52:41.868Z,73.14
2019-05-22T19:55:46.978Z,73.16
2019-05-22T19:58:52.038Z,73.02
2019-05-22T20:01:56.729Z,72.98
2019-05-22T20:05:01.780Z,73.17
2019-05-22T20:08:06.209Z,73.24
2019-05-22T20:11:10.822Z,73.04
2019-05-22T20:14:16.377Z,72.69
2019-05-22T20:17:21.086Z,72.88
2019-05-22T20:20:27.340Z,73.03
2019-05-22T20:23:35.865Z,73.09
2019-05-22T20:26:38.575Z,73.32
2019-05-22T20:29:43.153Z,72.95
2019-05-22T20:32:47.599Z,73.17
2019-05-22T20:35:52.449Z,73.17
2019-05-22T20:38:57.296Z,72.84
2019-05-22T20:42:02.051Z,72.75
2019-05-22T20:45:09.581Z,72.75
2019-05-22T20:48:17.827Z,73.13
2019-05-22T20:51:24.783Z,73.47
2019-05-22T20:54:30.358Z,73.50
2019-05-22T20:57:35.832Z,73.83
2019-05-22T21:00:42.073Z,74.73
2019-05-22T21:03:46.907Z,74.75
2019-05-22T21:07:01.197Z,74.84
2019-05-22T21:10:08.125Z,75.19
2019-05-22T21:13:15.216Z,75.35
2019-05-22T21:16:21.025Z,75.00
2019-05-22T21:19:27.355Z,74.45
2019-05-22T21:22:32.558Z,74.97
2019-05-22T21:25:37.576Z,75.12
2019-05-22T21:28:42.923Z,75.11
2019-05-22T21:31:48.535Z,75.44
2019-05-22T21:34:54.053Z,75.31
2019-05-22T21:37:58.564Z,75.62
2019-05-22T21:41:04.326Z,75.26
2019-05-22T21:44:10.034Z,76.35
2019-05-22T21:47:14.775Z,75.32
2019-05-22T21:50:20.552Z,75.56
2019-05-22T21:53:26.460Z,75.51
2019-05-22T21:56:32.007Z,75.78
2019-05-22T21:59:36.949Z,75.63
2019-05-22T22:02:45.744Z,76.03
2019-05-22T22:05:51.028Z,75.88
2019-05-22T22:08:55.493Z,76.17
2019-05-22T22:12:00.373Z,75.86
2019-05-22T22:15:08.566Z,76.08
2019-05-22T22:18:15.423Z,76.88
2019-05-22T22:21:20.037Z,76.33
2019-05-22T22:24:24.625Z,77.05
2019-05-22T22:27:29.512Z,76.55
2019-05-22T22:30:39.206Z,77.13
2019-05-22T22:33:48.210Z,77.14
2019-05-22T22:36:53.097Z,76.90
2019-05-22T22:39:59.554Z,76.17
2019-05-22T22:43:05.606Z,75.89
2019-05-22T22:46:19.265Z,75.83
2019-05-22T22:49:23.974Z,75.16
2019-05-22T22:52:29.160Z,74.71
2019-05-22T22:55:34.404Z,75.36
2019-05-22T22:58:39.133Z,75.52
2019-05-22T23:01:48.962Z,77.01
2019-05-22T23:04:54.317Z,76.68
2019-05-22T23:08:00.562Z,75.80
2019-05-22T23:11:07.140Z,76.18
2019-05-22T23:14:12.711Z,76.59
2019-05-22T23:17:17.156Z,75.72
2019-05-22T23:20:20.138Z,75.20
2019-05-22T23:23:23.691Z,76.09
2019-05-22T23:26:28.906Z,76.47
2019-05-22T23:29:34.797Z,75.28
2019-05-22T23:32:42.048Z,75.61
2019-05-22T23:35:46.656Z,76.23
2019-05-22T23:38:51.899Z,76.19
2019-05-22T23:41:58.498Z,76.42
2019-05-22T23:45:06.938Z,76.33
2019-05-22T23:48:13.461Z,76.45
2019-05-22T23:51:19.073Z,76.35
2019-05-22T23:54:24.190Z,76.07
2019-05-22T23:57:29.656Z,76.23
